Sierra-at-tahoe, California
Current Conditions -  °F | °C
As of 3:53 PM on Wednesday 26 Nov 2014 (Local Time) from KTVL Reporting Station
Clear Clear  
Wind Chill: 14°   Ceiling: Unl
Heat Index: 14°   Visibility: 10mi
Dew Point: -1°   Wind: 3mph
Humidity: 36%   Direction: NA
Pressure: 30.41"   Gusts: NA
Location:  38.77°N, 120.16°W
Report Text: KTVL 262353Z AUTO VRB03KT 10SM CLR 14/M01 A3041 RMK AO2 SLP281 T01391011 10183 20089 55004
Loading
Personal Weather Stations






























Interactive Weather Map New forecast layout! Learn more

10-Day Weather Forecast

Advertisements
Track Severe Weather on mobile